Terminal Aerodrome Forecast
Issued by NWS

Home | Current Version | Previous Version | Graphics & Text | Print | Product List | Glossary On
Versions: 1 2 3 4 5 6 7 8 9 10 11 12 13 14 15 16 17 18 19 20 21
000
FTUS43 KMPX 210341 AAC
TAFAXN
TAF AMD
KAXN 210341Z 2104/2124 29010KT P6SM SCT005
     FM210600 23007KT 4SM BR SCT007
      TEMPO 2108/2112 1SM BR BKN002
     FM211400 19008KT P6SM SCT010 SCT050
     FM211800 24010KT P6SM SCT250=

USA.gov is the U.S. government's official web portal to all federal, state and local government web resources and services.